createdAt,value
2022-10-29T00:00:52.998Z,16.37
2022-10-29T00:03:20.431Z,16.35
2022-10-29T00:06:16.586Z,16.30
2022-10-29T00:08:43.372Z,16.25
2022-10-29T00:11:13.536Z,16.26
2022-10-29T00:13:40.678Z,16.24
2022-10-29T00:16:16.635Z,16.22
2022-10-29T00:18:44.017Z,16.22
2022-10-29T00:21:13.716Z,16.18
2022-10-29T00:23:40.535Z,16.16
2022-10-29T00:26:07.457Z,16.16
2022-10-29T00:28:34.493Z,16.14
2022-10-29T00:31:12.318Z,16.15
2022-10-29T00:33:39.072Z,16.12
2022-10-29T00:36:11.843Z,16.12
2022-10-29T00:38:38.753Z,16.13
2022-10-29T00:41:07.021Z,16.09
2022-10-29T00:43:35.354Z,16.04
2022-10-29T00:46:08.422Z,15.95
2022-10-29T00:48:36.659Z,16.02
2022-10-29T00:51:05.695Z,16.01
2022-10-29T00:53:34.989Z,16.08
2022-10-29T00:56:02.122Z,16.12
2022-10-29T00:58:29.066Z,16.18
2022-10-29T01:00:55.730Z,16.15
2022-10-29T01:03:22.452Z,16.20
2022-10-29T01:05:49.512Z,16.32
2022-10-29T01:08:16.762Z,16.41
2022-10-29T01:11:05.260Z,16.43
2022-10-29T01:13:57.796Z,16.45
2022-10-29T01:16:24.370Z,16.44
2022-10-29T01:19:09.892Z,16.53
2022-10-29T01:21:36.533Z,16.51
2022-10-29T01:24:25.780Z,16.61
2022-10-29T01:27:10.748Z,16.64
2022-10-29T01:29:51.151Z,16.72
2022-10-29T01:32:47.046Z,16.73
2022-10-29T01:35:34.536Z,16.76
2022-10-29T01:38:29.100Z,16.76
2022-10-29T01:41:03.753Z,16.78
2022-10-29T01:43:55.272Z,16.77
2022-10-29T01:46:23.135Z,16.75
2022-10-29T01:48:52.762Z,16.77
2022-10-29T01:51:22.626Z,16.75
2022-10-29T01:53:49.667Z,16.76
2022-10-29T01:56:16.477Z,16.75
2022-10-29T01:58:47.920Z,16.72
2022-10-29T02:01:32.834Z,16.70
2022-10-29T02:04:18.297Z,16.64
2022-10-29T02:07:12.279Z,16.62
2022-10-29T02:09:46.201Z,16.62
2022-10-29T02:12:31.681Z,16.64
2022-10-29T02:15:03.650Z,16.59
2022-10-29T02:17:34.151Z,16.58
2022-10-29T02:20:09.528Z,16.55
2022-10-29T02:22:36.185Z,16.53
2022-10-29T02:25:03.338Z,16.53
2022-10-29T02:27:30.038Z,16.52
2022-10-29T02:29:56.690Z,16.48
2022-10-29T02:32:23.459Z,16.48
2022-10-29T02:34:50.207Z,16.42
2022-10-29T02:37:16.852Z,16.43
2022-10-29T02:39:43.523Z,16.41
2022-10-29T02:42:10.485Z,16.42
2022-10-29T02:44:37.145Z,16.43
2022-10-29T02:47:03.841Z,16.40
2022-10-29T02:49:30.508Z,16.44
2022-10-29T02:51:57.153Z,16.48
2022-10-29T02:54:23.892Z,16.46
2022-10-29T02:56:50.585Z,16.36
2022-10-29T02:59:17.239Z,16.46
2022-10-29T03:01:44.046Z,16.45
2022-10-29T03:04:11.751Z,16.49
2022-10-29T03:06:38.435Z,16.53
2022-10-29T03:09:05.456Z,16.50
2022-10-29T03:11:33.103Z,16.54
2022-10-29T03:13:59.835Z,16.58
2022-10-29T03:16:26.566Z,16.58
2022-10-29T03:18:53.231Z,16.59
2022-10-29T03:21:19.936Z,16.62
2022-10-29T03:23:46.615Z,16.62
2022-10-29T03:26:13.294Z,16.61
2022-10-29T03:28:40.133Z,16.61
2022-10-29T03:31:06.869Z,16.61
2022-10-29T03:33:33.538Z,16.59
2022-10-29T03:36:01.801Z,16.56
2022-10-29T03:38:28.701Z,16.54
2022-10-29T03:40:55.827Z,16.52
2022-10-29T03:43:22.509Z,16.47
2022-10-29T03:45:57.068Z,16.45
2022-10-29T03:48:25.369Z,16.45
2022-10-29T03:51:02.747Z,16.43
2022-10-29T03:53:29.676Z,16.43
2022-10-29T03:55:56.865Z,16.42
2022-10-29T03:58:24.569Z,16.38
2022-10-29T04:00:55.639Z,16.30
2022-10-29T04:03:22.339Z,16.32
2022-10-29T04:05:49.031Z,16.30
2022-10-29T04:08:15.711Z,16.31
2022-10-29T04:10:47.009Z,16.33
2022-10-29T04:13:14.456Z,16.31
2022-10-29T04:15:41.250Z,16.27
2022-10-29T04:18:08.147Z,16.27
2022-10-29T04:20:59.755Z,16.25
2022-10-29T04:28:55.477Z,16.20
2022-10-29T04:31:22.168Z,16.22
2022-10-29T04:33:48.812Z,16.18
2022-10-29T04:36:15.470Z,16.16
2022-10-29T04:38:42.166Z,16.14
2022-10-29T04:41:08.869Z,16.11
2022-10-29T04:43:35.591Z,16.08
2022-10-29T04:46:02.915Z,16.06
2022-10-29T04:48:29.973Z,16.10
2022-10-29T04:50:56.632Z,16.10
2022-10-29T04:53:23.367Z,16.06
2022-10-29T04:55:50.040Z,16.07
2022-10-29T04:58:18.783Z,16.04
2022-10-29T05:00:46.042Z,16.02
2022-10-29T05:03:13.266Z,16.02
2022-10-29T05:05:40.409Z,16.03
2022-10-29T05:08:07.482Z,16.02
2022-10-29T05:10:35.771Z,16.00
2022-10-29T05:13:05.668Z,15.98
2022-10-29T05:15:32.328Z,15.99
2022-10-29T05:17:59.137Z,15.97
2022-10-29T05:20:26.742Z,16.00
2022-10-29T05:23:07.847Z,15.98
2022-10-29T05:25:36.433Z,15.98
2022-10-29T05:28:05.372Z,15.96
2022-10-29T05:30:32.713Z,15.92
2022-10-29T05:32:59.491Z,15.90
2022-10-29T05:35:26.813Z,15.89
2022-10-29T05:37:54.221Z,15.86
2022-10-29T05:40:21.809Z,15.87
2022-10-29T05:42:48.631Z,15.88
2022-10-29T05:45:15.486Z,15.86
2022-10-29T05:47:42.523Z,15.82
2022-10-29T05:50:09.737Z,15.85
2022-10-29T05:52:36.376Z,15.80
2022-10-29T05:55:03.134Z,15.82
2022-10-29T05:57:29.802Z,15.81
2022-10-29T05:59:56.555Z,15.78
2022-10-29T06:02:23.343Z,15.76
2022-10-29T06:04:50.129Z,15.69
2022-10-29T06:07:16.750Z,15.67
2022-10-29T06:09:43.429Z,15.66
2022-10-29T06:12:10.067Z,15.64
2022-10-29T06:14:36.744Z,15.62
2022-10-29T06:17:03.398Z,15.61
2022-10-29T06:19:30.252Z,15.61
2022-10-29T06:22:00.328Z,15.58
2022-10-29T06:24:27.636Z,15.56
2022-10-29T06:26:54.710Z,15.57
2022-10-29T06:29:21.430Z,15.56
2022-10-29T06:31:48.080Z,15.55
2022-10-29T06:34:15.034Z,15.54
2022-10-29T06:36:41.862Z,15.56
2022-10-29T06:39:08.649Z,15.56
2022-10-29T06:41:35.363Z,15.58
2022-10-29T06:44:02.093Z,15.59
2022-10-29T06:46:28.793Z,15.57
2022-10-29T06:48:55.461Z,15.58
2022-10-29T06:53:50.107Z,15.58
2022-10-29T06:56:16.844Z,15.60
2022-10-29T06:58:43.617Z,15.64
2022-10-29T07:01:10.497Z,15.64
2022-10-29T07:03:37.279Z,15.63
2022-10-29T07:06:04.278Z,15.65
2022-10-29T07:08:31.003Z,15.73
2022-10-29T07:10:57.934Z,15.69
2022-10-29T07:13:24.702Z,15.76
2022-10-29T07:15:51.517Z,15.79
2022-10-29T07:18:18.226Z,15.81
2022-10-29T07:20:45.552Z,15.88
2022-10-29T07:23:13.281Z,15.92
2022-10-29T07:25:41.004Z,15.98
2022-10-29T07:28:13.732Z,16.01
2022-10-29T07:30:40.937Z,16.02
2022-10-29T07:33:07.636Z,16.07
2022-10-29T07:35:35.267Z,16.14
2022-10-29T07:38:08.764Z,16.13
2022-10-29T07:40:41.145Z,16.15
2022-10-29T07:43:09.212Z,16.22
2022-10-29T07:45:35.922Z,16.23
2022-10-29T07:48:04.756Z,16.27
2022-10-29T07:50:32.086Z,16.29
2022-10-29T07:53:02.739Z,16.32
2022-10-29T07:58:02.517Z,16.37
2022-10-29T08:00:30.481Z,16.49
2022-10-29T08:02:57.563Z,16.59
2022-10-29T08:05:25.545Z,16.64
2022-10-29T08:07:56.103Z,16.76
2022-10-29T08:10:26.534Z,16.84
2022-10-29T08:12:55.581Z,16.95
2022-10-29T08:15:23.331Z,17.02
2022-10-29T08:17:50.465Z,17.12
2022-10-29T08:20:17.691Z,17.18
2022-10-29T08:22:44.443Z,17.30
2022-10-29T08:25:12.173Z,17.45
2022-10-29T08:27:39.135Z,17.66
2022-10-29T08:30:10.881Z,17.81
2022-10-29T08:32:37.607Z,17.95
2022-10-29T08:35:06.349Z,18.24
2022-10-29T08:37:33.006Z,18.35
2022-10-29T08:39:59.653Z,18.48
2022-10-29T08:42:41.732Z,18.64
2022-10-29T08:45:25.087Z,18.60
2022-10-29T08:48:22.744Z,18.58
2022-10-29T08:50:53.870Z,18.77
2022-10-29T08:53:32.840Z,18.93
2022-10-29T08:56:00.438Z,19.14
2022-10-29T08:58:37.618Z,19.21
2022-10-29T09:01:10.534Z,19.27
2022-10-29T09:03:37.566Z,19.47
2022-10-29T09:06:16.532Z,19.35
2022-10-29T09:08:52.345Z,19.59
2022-10-29T09:11:56.767Z,19.77
2022-10-29T09:14:42.210Z,19.83
2022-10-29T09:17:37.358Z,19.89
2022-10-29T09:20:38.036Z,20.25
2022-10-29T09:23:29.767Z,20.40
2022-10-29T09:26:03.334Z,20.71
2022-10-29T09:28:48.613Z,20.97
2022-10-29T09:31:38.093Z,21.40
2022-10-29T09:34:12.247Z,21.55
2022-10-29T09:36:39.288Z,21.69
2022-10-29T09:39:14.775Z,21.68
2022-10-29T09:41:41.600Z,21.49
2022-10-29T09:44:20.627Z,21.49
2022-10-29T09:47:08.605Z,21.53
2022-10-29T09:49:48.762Z,21.35
2022-10-29T09:52:23.961Z,21.40
2022-10-29T09:54:52.024Z,21.23
2022-10-29T09:57:23.963Z,21.23
2022-10-29T09:59:55.926Z,21.19
2022-10-29T10:02:39.112Z,21.16
2022-10-29T10:05:29.513Z,20.96
2022-10-29T10:08:11.131Z,20.83
2022-10-29T10:10:51.357Z,20.79
2022-10-29T10:13:19.729Z,20.78
2022-10-29T10:15:53.365Z,20.90
2022-10-29T10:18:28.665Z,21.10
2022-10-29T10:21:09.411Z,21.15
2022-10-29T10:23:42.513Z,21.27
2022-10-29T10:26:44.272Z,21.38
2022-10-29T10:29:18.333Z,21.61
2022-10-29T10:31:57.281Z,21.95
2022-10-29T10:34:36.615Z,21.96
2022-10-29T10:37:05.847Z,22.09
2022-10-29T10:39:37.208Z,22.19
2022-10-29T10:42:05.873Z,22.38
2022-10-29T10:44:32.911Z,22.67
2022-10-29T10:47:04.804Z,22.50
2022-10-29T10:49:34.277Z,22.74
2022-10-29T10:52:04.475Z,22.89
2022-10-29T10:54:42.187Z,22.98
2022-10-29T10:57:12.046Z,23.09
2022-10-29T10:59:51.671Z,22.89
2022-10-29T11:02:27.487Z,22.96
2022-10-29T11:05:00.915Z,23.03
2022-10-29T11:07:34.396Z,23.06
2022-10-29T11:10:03.876Z,22.93
2022-10-29T11:12:32.692Z,22.88
2022-10-29T11:15:18.587Z,22.77
2022-10-29T11:17:56.804Z,22.50
2022-10-29T11:20:33.831Z,22.30
2022-10-29T11:23:34.376Z,22.42
2022-10-29T11:26:24.401Z,22.53
2022-10-29T11:28:57.381Z,22.43
2022-10-29T11:31:36.646Z,22.37
2022-10-29T11:34:10.574Z,22.26
2022-10-29T11:36:44.913Z,22.22
2022-10-29T11:39:36.171Z,22.23
2022-10-29T11:42:02.902Z,22.23
2022-10-29T11:44:32.975Z,22.21
2022-10-29T11:47:09.558Z,22.12
2022-10-29T11:49:45.321Z,22.09
2022-10-29T11:52:20.534Z,22.09
2022-10-29T11:54:53.717Z,22.12
2022-10-29T11:57:31.841Z,21.88
2022-10-29T12:00:07.519Z,22.05
2022-10-29T12:02:43.239Z,22.01
2022-10-29T12:05:23.502Z,21.85
2022-10-29T12:08:08.380Z,21.96
2022-10-29T12:11:00.175Z,21.96
2022-10-29T12:13:51.768Z,22.09
2022-10-29T12:16:56.590Z,22.09
2022-10-29T12:19:29.435Z,22.13
2022-10-29T12:22:13.524Z,22.17
2022-10-29T12:24:57.877Z,22.19
2022-10-29T12:27:30.787Z,22.11
2022-10-29T12:30:01.992Z,22.04
2022-10-29T12:32:38.212Z,22.11
2022-10-29T12:35:31.270Z,22.13
2022-10-29T12:38:39.615Z,22.14
2022-10-29T12:41:13.722Z,22.13
2022-10-29T12:43:41.903Z,22.09
2022-10-29T12:46:31.685Z,22.10
2022-10-29T12:49:29.300Z,22.03
2022-10-29T12:51:59.276Z,21.99
2022-10-29T12:54:26.117Z,21.97
2022-10-29T12:56:53.038Z,21.92
2022-10-29T12:59:36.833Z,21.92
2022-10-29T13:02:19.725Z,21.92
2022-10-29T13:05:34.226Z,21.81
2022-10-29T13:08:04.006Z,21.80
2022-10-29T13:10:33.946Z,21.87
2022-10-29T13:13:18.914Z,21.76
2022-10-29T13:16:01.577Z,21.76
2022-10-29T13:18:29.307Z,21.76
2022-10-29T13:20:56.206Z,21.64
2022-10-29T13:23:22.839Z,21.78
2022-10-29T13:25:54.031Z,21.81
2022-10-29T13:28:20.860Z,21.87
2022-10-29T13:30:49.480Z,21.87
2022-10-29T13:33:19.071Z,21.70
2022-10-29T13:35:54.601Z,21.82
2022-10-29T13:38:58.023Z,21.84
2022-10-29T13:41:40.441Z,21.88
2022-10-29T13:44:22.866Z,21.91
2022-10-29T13:46:56.625Z,21.83
2022-10-29T13:49:31.087Z,21.83
2022-10-29T13:52:03.585Z,21.71
2022-10-29T13:54:47.181Z,21.67
2022-10-29T13:57:13.816Z,21.58
2022-10-29T13:59:50.133Z,21.63
2022-10-29T14:02:26.531Z,21.65
2022-10-29T14:04:56.926Z,21.58
2022-10-29T14:07:30.440Z,21.64
2022-10-29T14:10:02.025Z,21.64
2022-10-29T14:12:31.359Z,21.63
2022-10-29T14:15:11.063Z,21.52
2022-10-29T14:17:37.774Z,21.58
2022-10-29T14:20:04.678Z,21.55
2022-10-29T14:22:39.177Z,21.54
2022-10-29T14:25:24.759Z,21.43
2022-10-29T14:28:32.005Z,21.51
2022-10-29T14:31:00.377Z,21.56
2022-10-29T14:33:29.359Z,21.45
2022-10-29T14:36:11.746Z,21.52
2022-10-29T14:38:51.446Z,21.39
2022-10-29T14:41:19.061Z,21.34
2022-10-29T14:43:52.195Z,21.25
2022-10-29T14:46:30.115Z,21.05
2022-10-29T14:49:20.968Z,20.98
2022-10-29T14:51:50.842Z,20.95
2022-10-29T14:54:22.340Z,21.03
2022-10-29T14:56:51.862Z,21.09
2022-10-29T14:59:21.688Z,21.03
2022-10-29T15:01:57.132Z,21.04
2022-10-29T15:04:31.758Z,21.10
2022-10-29T15:07:21.835Z,21.02
2022-10-29T15:09:49.497Z,20.95
2022-10-29T15:12:24.612Z,20.94
2022-10-29T15:14:54.517Z,21.00
2022-10-29T15:17:29.554Z,21.01
2022-10-29T15:20:05.340Z,21.05
2022-10-29T15:22:36.144Z,21.03
2022-10-29T15:25:05.540Z,21.05
2022-10-29T15:27:32.444Z,21.05
2022-10-29T15:29:59.763Z,20.95
2022-10-29T15:32:30.489Z,20.95
2022-10-29T15:34:59.517Z,20.96
2022-10-29T15:37:40.922Z,20.96
2022-10-29T15:40:26.148Z,20.93
2022-10-29T15:42:53.979Z,20.85
2022-10-29T15:45:23.644Z,20.83
2022-10-29T15:48:05.880Z,20.80
2022-10-29T15:50:38.590Z,20.70
2022-10-29T15:53:07.337Z,20.54
2022-10-29T15:55:35.527Z,20.40
2022-10-29T15:58:04.679Z,20.37
2022-10-29T16:00:32.081Z,20.45
2022-10-29T16:03:13.957Z,20.44
2022-10-29T16:05:42.191Z,20.45
2022-10-29T16:08:17.900Z,20.43
2022-10-29T16:10:44.679Z,20.42
2022-10-29T16:13:11.746Z,20.38
2022-10-29T16:15:41.599Z,20.37
2022-10-29T16:18:10.925Z,20.32
2022-10-29T16:20:37.673Z,20.26
2022-10-29T16:23:04.385Z,20.24
2022-10-29T16:25:31.182Z,20.14
2022-10-29T16:27:58.256Z,20.13
2022-10-29T16:30:25.310Z,20.05
2022-10-29T16:32:52.722Z,20.04
2022-10-29T16:35:24.280Z,20.00
2022-10-29T16:37:51.889Z,19.94
2022-10-29T16:40:20.493Z,19.95
2022-10-29T16:42:47.754Z,19.94
2022-10-29T16:45:17.087Z,19.92
2022-10-29T16:47:43.799Z,19.90
2022-10-29T16:50:16.439Z,19.86
2022-10-29T16:52:43.453Z,19.80
2022-10-29T16:55:10.952Z,19.79
2022-10-29T16:57:37.932Z,19.78
2022-10-29T17:00:06.454Z,19.75
2022-10-29T17:02:33.122Z,19.70
2022-10-29T17:04:59.809Z,19.70
2022-10-29T17:07:26.548Z,19.67
2022-10-29T17:09:53.243Z,19.64
2022-10-29T17:12:19.926Z,19.61
2022-10-29T17:14:46.637Z,19.60
2022-10-29T17:17:13.410Z,19.55
2022-10-29T17:19:40.076Z,19.52
2022-10-29T17:22:10.692Z,19.47
2022-10-29T17:24:37.503Z,19.46
2022-10-29T17:27:04.271Z,19.41
2022-10-29T17:29:36.154Z,19.27
2022-10-29T17:34:30.470Z,19.37
2022-10-29T17:36:57.184Z,19.36
2022-10-29T17:39:23.861Z,19.35
2022-10-29T17:41:51.105Z,19.34
2022-10-29T17:44:17.891Z,19.28
2022-10-29T17:46:44.778Z,19.26
2022-10-29T17:49:11.515Z,19.24
2022-10-29T17:51:38.200Z,19.22
2022-10-29T17:54:04.953Z,19.18
2022-10-29T17:56:32.179Z,19.16
2022-10-29T17:58:58.857Z,19.13
2022-10-29T18:01:25.707Z,19.08
2022-10-29T18:03:52.488Z,19.07
2022-10-29T18:06:19.472Z,19.03
2022-10-29T18:08:46.152Z,18.99
2022-10-29T18:11:18.931Z,18.95
2022-10-29T18:13:46.781Z,18.92
2022-10-29T18:16:19.054Z,18.89
2022-10-29T18:19:00.927Z,18.85
2022-10-29T18:21:29.509Z,18.82
2022-10-29T18:23:56.326Z,18.79
2022-10-29T18:26:31.268Z,18.75
2022-10-29T18:28:59.383Z,18.68
2022-10-29T18:31:30.015Z,18.65
2022-10-29T18:33:57.707Z,18.60
2022-10-29T18:36:24.494Z,18.58
2022-10-29T18:38:52.395Z,18.55
2022-10-29T18:41:19.184Z,18.51
2022-10-29T18:43:46.141Z,18.44
2022-10-29T18:46:13.359Z,18.40
2022-10-29T18:48:41.833Z,18.36
2022-10-29T18:51:11.474Z,18.34
2022-10-29T18:53:38.990Z,18.31
2022-10-29T18:56:16.618Z,18.27
2022-10-29T18:58:43.673Z,18.23
2022-10-29T19:01:24.608Z,18.20
2022-10-29T19:03:53.175Z,18.18
2022-10-29T19:06:20.794Z,18.17
2022-10-29T19:08:47.646Z,18.15
2022-10-29T19:11:17.230Z,18.16
2022-10-29T19:13:44.026Z,18.13
2022-10-29T19:16:12.742Z,18.11
2022-10-29T19:18:40.824Z,18.10
2022-10-29T19:21:08.350Z,18.08
2022-10-29T19:23:35.168Z,18.05
2022-10-29T19:26:09.233Z,18.05
2022-10-29T19:28:36.603Z,18.00
2022-10-29T19:31:11.783Z,17.99
2022-10-29T19:33:38.923Z,17.96
2022-10-29T19:36:07.154Z,17.91
2022-10-29T19:38:34.559Z,17.86
2022-10-29T19:41:01.281Z,17.84
2022-10-29T19:43:31.375Z,17.80
2022-10-29T19:45:58.397Z,17.77
2022-10-29T19:48:25.530Z,17.74
2022-10-29T19:50:56.609Z,17.74
2022-10-29T19:53:23.950Z,17.73
2022-10-29T19:55:51.122Z,17.69
2022-10-29T19:58:18.524Z,17.66
2022-10-29T20:00:45.406Z,17.63
2022-10-29T20:03:13.283Z,17.61
2022-10-29T20:05:40.529Z,17.58
2022-10-29T20:08:11.367Z,17.57
2022-10-29T20:10:41.623Z,17.54
2022-10-29T20:13:08.324Z,17.51
2022-10-29T20:15:35.088Z,17.50
2022-10-29T20:18:01.778Z,17.52
2022-10-29T20:20:28.533Z,17.52
2022-10-29T20:22:55.665Z,17.50
2022-10-29T20:25:24.050Z,17.47
2022-10-29T20:27:50.956Z,17.43
2022-10-29T20:30:17.933Z,17.44
2022-10-29T20:32:44.623Z,17.43
2022-10-29T20:35:11.318Z,17.40
2022-10-29T20:37:38.062Z,17.36
2022-10-29T20:40:05.515Z,17.34
2022-10-29T20:42:32.187Z,17.32
2022-10-29T20:44:58.892Z,17.28
2022-10-29T20:47:25.568Z,17.27
2022-10-29T20:49:52.248Z,17.26
2022-10-29T20:52:18.960Z,17.27
2022-10-29T20:54:45.724Z,17.29
2022-10-29T20:57:12.392Z,17.28
2022-10-29T20:59:39.173Z,17.30
2022-10-29T21:02:06.128Z,17.26
2022-10-29T21:04:33.095Z,17.24
2022-10-29T21:06:59.770Z,17.20
2022-10-29T21:09:27.411Z,17.20
2022-10-29T21:11:54.933Z,17.21
2022-10-29T21:14:23.548Z,17.22
2022-10-29T21:16:50.379Z,17.20
2022-10-29T21:19:17.045Z,17.19
2022-10-29T21:21:43.795Z,17.18
2022-10-29T21:24:10.468Z,17.17
2022-10-29T21:26:37.174Z,17.17
2022-10-29T21:29:03.885Z,17.14
2022-10-29T21:31:30.642Z,17.13
2022-10-29T21:33:57.330Z,17.08
2022-10-29T21:36:24.400Z,17.04
2022-10-29T21:38:51.204Z,16.99
2022-10-29T21:41:18.558Z,17.01
2022-10-29T21:43:45.283Z,17.01
2022-10-29T21:46:12.046Z,17.00
2022-10-29T21:48:38.756Z,16.99
2022-10-29T21:51:11.360Z,16.98
2022-10-29T21:53:38.409Z,16.98
2022-10-29T21:56:06.874Z,16.94
2022-10-29T21:58:33.884Z,16.94
2022-10-29T22:01:04.833Z,16.95
2022-10-29T22:03:33.538Z,16.94
2022-10-29T22:06:07.930Z,16.94
2022-10-29T22:08:35.268Z,16.93
2022-10-29T22:11:02.649Z,16.94
2022-10-29T22:13:29.951Z,16.92
2022-10-29T22:15:56.899Z,16.91
2022-10-29T22:18:25.460Z,16.90
2022-10-29T22:21:12.237Z,16.89
2022-10-29T22:23:45.602Z,16.88
2022-10-29T22:26:13.736Z,16.88
2022-10-29T22:28:40.443Z,16.84
2022-10-29T22:31:07.350Z,16.80
2022-10-29T22:33:35.311Z,16.86
2022-10-29T22:36:10.600Z,16.85
2022-10-29T22:38:37.889Z,16.85
2022-10-29T22:41:06.204Z,16.85
2022-10-29T22:43:33.146Z,16.84
2022-10-29T22:45:59.877Z,16.83
2022-10-29T22:48:26.539Z,16.82
2022-10-29T22:51:03.469Z,16.82
2022-10-29T22:53:30.472Z,16.82
2022-10-29T22:55:57.164Z,16.82
2022-10-29T22:58:24.034Z,16.81
2022-10-29T23:01:01.054Z,16.80
2022-10-29T23:03:27.837Z,16.82
2022-10-29T23:06:02.639Z,16.81
2022-10-29T23:08:30.180Z,16.78
2022-10-29T23:10:56.989Z,16.77
2022-10-29T23:13:23.725Z,16.78
2022-10-29T23:15:51.933Z,16.75
2022-10-29T23:18:19.137Z,16.74
2022-10-29T23:20:45.937Z,16.72
2022-10-29T23:23:13.472Z,16.72
2022-10-29T23:25:41.751Z,16.70
2022-10-29T23:28:09.238Z,16.70
2022-10-29T23:30:36.078Z,16.68
2022-10-29T23:33:02.776Z,16.66
2022-10-29T23:35:29.506Z,16.65
2022-10-29T23:37:56.561Z,16.65
2022-10-29T23:40:23.469Z,16.63
2022-10-29T23:42:50.258Z,16.61
2022-10-29T23:45:17.117Z,16.59
2022-10-29T23:47:43.819Z,16.57
2022-10-29T23:50:10.513Z,16.56
2022-10-29T23:52:37.200Z,16.54
2022-10-29T23:55:03.940Z,16.51
2022-10-29T23:57:30.658Z,16.48
2022-10-29T23:59:57.326Z,16.46
